Time;durP1;ratioP1;P1;durP2;ratioP2;P2;SDS_P1;SDS_P2;PMS_P1;PMS_P2;Temp;Humidity;BMP_temperature;BMP_pressure;BME280_temperature;BME280_humidity;BME280_pressure;Samples;Min_cycle;Max_cycle;Signal;HPM_P1;HPM_P2
2022/09/17 00:01:27;;;;;;;5.53;0.50;;;12.10;82.40;;;;;;4883149;29;20048;-86
2022/09/17 00:03:56;;;;;;;3.78;0.70;;;12.00;82.90;;;;;;4884442;29;20049;-86
2022/09/17 00:06:26;;;;;;;4.38;0.47;;;11.90;83.70;;;;;;4889717;29;20139;-86
2022/09/17 00:08:54;;;;;;;2.85;0.45;;;11.70;84.20;;;;;;4868191;29;20049;-87
2022/09/17 00:11:27;;;;;;;1.48;0.30;;;11.60;84.50;;;;;;4867392;29;20065;-86
2022/09/17 00:13:55;;;;;;;5.30;0.40;;;11.60;84.60;;;;;;4867344;29;20041;-86
2022/09/17 00:16:31;;;;;;;3.30;0.30;;;11.60;84.70;;;;;;4885955;29;20593;-86
2022/09/17 00:19:00;;;;;;;8.57;0.50;;;11.60;84.90;;;;;;4888302;29;20056;-86
2022/09/17 00:21:27;;;;;;;4.53;0.50;;;11.60;85.10;;;;;;4876714;29;20036;-86
2022/09/17 00:23:56;;;;;;;3.78;0.25;;;11.50;85.40;;;;;;4864415;29;20056;-86
2022/09/17 00:26:24;;;;;;;7.13;0.90;;;11.40;85.80;;;;;;4901559;29;20043;-86
2022/09/17 00:28:53;;;;;;;2.67;0.30;;;11.30;86.00;;;;;;4879401;29;20052;-86
2022/09/17 00:31:21;;;;;;;7.32;0.75;;;11.30;86.10;;;;;;4897819;29;20053;-87
2022/09/17 00:33:49;;;;;;;5.82;0.50;;;11.30;86.60;;;;;;4891875;29;20112;-86
2022/09/17 00:36:19;;;;;;;4.40;1.00;;;11.30;86.50;;;;;;4870956;29;20066;-85
2022/09/17 00:38:50;;;;;;;4.90;0.52;;;11.30;86.60;;;;;;4881054;29;20044;-86
2022/09/17 00:41:18;;;;;;;2.93;0.37;;;11.30;87.00;;;;;;4876453;29;20055;-86
2022/09/17 00:43:52;;;;;;;4.13;0.40;;;11.30;86.50;;;;;;4876558;29;20532;-87
2022/09/17 00:46:36;;;;;;;3.00;0.45;;;11.30;86.60;;;;;;4880157;29;20048;-87
2022/09/17 00:49:20;;;;;;;2.20;0.35;;;11.30;86.60;;;;;;4882530;29;20055;-85
2022/09/17 00:51:56;;;;;;;5.22;0.50;;;11.30;86.70;;;;;;4896233;29;20049;-85
2022/09/17 00:54:27;;;;;;;3.83;1.08;;;11.30;87.00;;;;;;4882567;29;20116;-88
2022/09/17 00:56:55;;;;;;;4.88;0.22;;;11.30;86.80;;;;;;4895460;29;20047;-86
2022/09/17 00:59:23;;;;;;;3.10;0.45;;;11.30;86.80;;;;;;4862338;29;20556;-86
2022/09/17 01:01:51;;;;;;;3.63;0.52;;;11.40;86.80;;;;;;4881854;29;20541;-85
2022/09/17 01:04:22;;;;;;;7.75;0.70;;;11.40;87.00;;;;;;4854616;29;20128;-87
2022/09/17 01:07:13;;;;;;;6.45;0.80;;;11.40;86.90;;;;;;4897522;29;20060;-87
2022/09/17 01:09:47;;;;;;;2.92;0.40;;;11.40;86.80;;;;;;4876319;29;20056;-86
2022/09/17 01:12:33;;;;;;;4.32;0.40;;;11.40;87.00;;;;;;4863486;29;20139;-86
2022/09/17 01:15:42;;;;;;;3.95;0.30;;;11.30;87.00;;;;;;4881615;29;20052;-86
2022/09/17 01:18:36;;;;;;;5.75;0.70;;;11.30;87.30;;;;;;4851052;29;20100;-86
2022/09/17 01:21:30;;;;;;;5.68;0.70;;;11.30;87.40;;;;;;4892201;29;20139;-85
2022/09/17 01:24:03;;;;;;;5.32;0.40;;;11.30;87.60;;;;;;4880528;29;20048;-87
2022/09/17 01:27:04;;;;;;;4.30;0.60;;;11.40;87.70;;;;;;4876276;29;20489;-87
2022/09/17 01:29:50;;;;;;;6.07;0.52;;;11.30;87.80;;;;;;4850567;29;20049;-87
2022/09/17 01:32:47;;;;;;;4.00;0.68;;;11.30;88.20;;;;;;4897165;29;20060;-88
2022/09/17 01:35:37;;;;;;;2.53;0.40;;;11.20;88.40;;;;;;4883881;29;20052;-87
2022/09/17 01:38:10;;;;;;;2.50;0.70;;;11.20;88.70;;;;;;4900331;29;20116;-86
2022/09/17 01:40:49;;;;;;;3.70;0.68;;;11.10;89.30;;;;;;4885362;29;20143;-87
2022/09/17 01:43:29;;;;;;;6.68;0.75;;;11.10;89.30;;;;;;4879480;29;20049;-87
2022/09/17 01:46:03;;;;;;;5.05;0.57;;;11.10;89.50;;;;;;4863618;29;20157;-87
2022/09/17 01:48:38;;;;;;;3.00;0.43;;;11.00;89.70;;;;;;4848289;29;20143;-87
2022/09/17 01:51:25;;;;;;;3.03;0.30;;;11.00;89.60;;;;;;4878825;29;20053;-87
2022/09/17 01:54:01;;;;;;;2.03;0.30;;;11.00;89.70;;;;;;4869543;29;20068;-88
2022/09/17 01:56:50;;;;;;;5.45;0.20;;;11.00;89.80;;;;;;4863295;29;20555;-88
2022/09/17 01:59:58;;;;;;;3.33;0.15;;;11.10;89.80;;;;;;4847958;29;20061;-87
2022/09/17 02:02:44;;;;;;;3.08;0.50;;;11.10;89.70;;;;;;4859948;29;20060;-87
2022/09/17 02:05:21;;;;;;;2.30;0.30;;;11.00;90.00;;;;;;4898440;29;20067;-87
2022/09/17 02:08:01;;;;;;;3.67;0.32;;;11.00;90.00;;;;;;4868650;29;20887;-87
2022/09/17 02:10:36;;;;;;;0.93;0.20;;;10.90;90.10;;;;;;4866887;29;20490;-86
2022/09/17 02:13:26;;;;;;;3.63;0.43;;;10.90;90.20;;;;;;4877963;29;20199;-86
2022/09/17 02:16:01;;;;;;;4.47;0.57;;;10.90;90.30;;;;;;4878954;29;20367;-86
2022/09/17 02:18:36;;;;;;;4.13;0.32;;;10.80;90.20;;;;;;4895595;29;20068;-87
2022/09/17 02:21:14;;;;;;;3.33;0.70;;;10.90;90.20;;;;;;4892723;29;20052;-87
2022/09/17 02:23:56;;;;;;;2.85;0.40;;;10.90;90.20;;;;;;4881864;29;20052;-88
2022/09/17 02:26:26;;;;;;;2.08;0.30;;;10.90;90.30;;;;;;4885623;29;20056;-87
2022/09/17 02:28:59;;;;;;;1.95;0.30;;;10.90;90.30;;;;;;4877594;29;20429;-87
2022/09/17 02:31:26;;;;;;;2.08;0.38;;;10.90;90.30;;;;;;4883446;29;20056;-87
2022/09/17 02:34:00;;;;;;;3.97;0.40;;;10.80;90.30;;;;;;4872715;29;20048;-87
2022/09/17 02:36:28;;;;;;;2.75;0.73;;;10.80;90.40;;;;;;4900439;29;20096;-87
2022/09/17 02:39:00;;;;;;;2.55;0.20;;;10.80;90.40;;;;;;4880865;29;20557;-87
2022/09/17 02:41:43;;;;;;;4.55;0.40;;;10.80;90.40;;;;;;4890848;29;20154;-87
2022/09/17 02:44:33;;;;;;;;;;;10.80;90.40;;;;;;4889628;29;20099;-87
2022/09/17 02:47:41;;;;;;;3.92;0.35;;;10.80;90.50;;;;;;4833102;29;20022;-87
2022/09/17 02:50:15;;;;;;;1.85;0.30;;;10.80;90.40;;;;;;4840380;29;20414;-87
2022/09/17 02:53:05;;;;;;;2.25;0.20;;;10.80;90.40;;;;;;4855195;29;20052;-87
2022/09/17 02:56:07;;;;;;;3.10;0.30;;;10.80;90.30;;;;;;4876620;29;20048;-86
2022/09/17 02:58:49;;;;;;;3.00;0.35;;;10.80;90.40;;;;;;4870267;29;20460;-86
2022/09/17 03:01:45;;;;;;;2.85;0.40;;;10.70;90.50;;;;;;4882427;29;20060;-87
2022/09/17 03:04:16;;;;;;;2.03;0.30;;;10.70;90.60;;;;;;4883738;29;20879;-86
2022/09/17 03:06:46;;;;;;;3.15;0.50;;;10.60;90.60;;;;;;4874681;29;20136;-86
2022/09/17 03:09:14;;;;;;;1.85;0.38;;;10.60;90.70;;;;;;4871921;29;20497;-86
2022/09/17 03:11:41;;;;;;;2.50;0.28;;;10.60;90.80;;;;;;4850591;29;20085;-87
2022/09/17 03:14:08;;;;;;;2.22;0.20;;;10.50;90.80;;;;;;4850697;29;20049;-87
2022/09/17 03:16:35;;;;;;;3.08;0.30;;;10.50;90.80;;;;;;4866381;29;20049;-86
2022/09/17 03:19:03;;;;;;;4.15;0.70;;;10.50;90.80;;;;;;4887473;29;20059;-87
2022/09/17 03:21:30;;;;;;;1.55;0.20;;;10.50;90.80;;;;;;4874816;29;20413;-87
2022/09/17 03:23:59;;;;;;;1.92;0.17;;;10.40;90.80;;;;;;4881727;29;20409;-86
2022/09/17 03:26:26;;;;;;;1.42;0.17;;;10.40;90.90;;;;;;4888208;29;20052;-87
2022/09/17 03:28:54;;;;;;;1.80;0.20;;;10.40;90.90;;;;;;4860925;29;20044;-87
2022/09/17 03:31:21;;;;;;;2.42;0.43;;;10.40;90.90;;;;;;4880988;29;20052;-87
2022/09/17 03:33:49;;;;;;;2.85;0.30;;;10.30;90.90;;;;;;4866049;29;20052;-87
2022/09/17 03:36:16;;;;;;;1.83;0.20;;;10.30;90.90;;;;;;4872990;29;20048;-88
2022/09/17 03:38:45;;;;;;;1.42;0.20;;;10.30;91.00;;;;;;4872024;29;20481;-86
2022/09/17 03:41:12;;;;;;;0.88;0.30;;;10.20;91.00;;;;;;4889059;29;20051;-85
2022/09/17 03:43:40;;;;;;;1.88;0.57;;;10.20;91.00;;;;;;4884382;29;20064;-85
2022/09/17 03:46:06;;;;;;;1.55;0.20;;;10.20;91.00;;;;;;4862652;29;20092;-85
2022/09/17 03:48:35;;;;;;;0.65;0.20;;;10.20;91.00;;;;;;4892202;29;20052;-85
2022/09/17 03:51:03;;;;;;;2.95;0.38;;;10.20;91.00;;;;;;4871440;29;20055;-85
2022/09/17 03:53:31;;;;;;;2.28;0.20;;;10.20;91.10;;;;;;4907255;29;20115;-84
2022/09/17 03:56:00;;;;;;;0.80;0.20;;;10.20;91.00;;;;;;4893488;29;20110;-86
2022/09/17 03:58:28;;;;;;;1.80;0.30;;;10.20;91.00;;;;;;4875957;29;20053;-84
2022/09/17 04:00:56;;;;;;;3.22;0.40;;;10.20;91.00;;;;;;4872397;29;20481;-86
2022/09/17 04:03:25;;;;;;;1.45;0.35;;;10.20;91.00;;;;;;4841266;29;20112;-85
2022/09/17 04:05:53;;;;;;;2.50;0.73;;;10.20;91.00;;;;;;4871267;29;20056;-84
2022/09/17 04:08:20;;;;;;;2.50;0.20;;;10.20;91.00;;;;;;4857216;29;20128;-84
2022/09/17 04:10:47;;;;;;;1.75;0.30;;;10.20;90.90;;;;;;4853607;29;20072;-87
2022/09/17 04:13:17;;;;;;;2.20;0.15;;;10.20;90.90;;;;;;4883412;29;20053;-87
2022/09/17 04:15:45;;;;;;;1.30;0.13;;;10.20;91.00;;;;;;4867523;29;20044;-87
2022/09/17 04:18:13;;;;;;;1.38;0.10;;;10.20;91.00;;;;;;4867928;29;20104;-87
2022/09/17 04:20:40;;;;;;;2.83;0.10;;;10.20;91.00;;;;;;4852871;29;20055;-87
2022/09/17 04:23:09;;;;;;;1.70;0.10;;;10.20;91.00;;;;;;4831027;29;20041;-86
2022/09/17 04:25:37;;;;;;;1.67;0.17;;;10.20;91.00;;;;;;4846077;29;20061;-87
2022/09/17 04:28:06;;;;;;;1.65;0.10;;;10.10;91.00;;;;;;4831373;29;20049;-85
2022/09/17 04:30:34;;;;;;;2.65;0.65;;;10.10;91.00;;;;;;4831360;29;20077;-86
2022/09/17 04:33:01;;;;;;;0.98;0.10;;;10.10;91.00;;;;;;4857079;29;20056;-86
2022/09/17 04:35:29;;;;;;;2.17;0.20;;;10.00;91.00;;;;;;4873076;29;20084;-86
2022/09/17 04:37:56;;;;;;;0.80;0.10;;;10.00;91.10;;;;;;4867368;29;20442;-86
2022/09/17 04:40:25;;;;;;;1.27;0.10;;;10.00;91.10;;;;;;4866982;29;20490;-86
2022/09/17 04:43:02;;;;;;;0.43;0.10;;;10.00;91.10;;;;;;4876965;29;20474;-87
2022/09/17 04:45:32;;;;;;;1.45;0.10;;;9.90;91.10;;;;;;4843623;29;20044;-87
2022/09/17 04:48:00;;;;;;;1.40;0.00;;;9.80;91.10;;;;;;4820899;29;20046;-87
2022/09/17 04:50:27;;;;;;;1.27;0.10;;;9.80;91.20;;;;;;4864411;29;20191;-86
2022/09/17 04:52:54;;;;;;;3.53;0.10;;;9.80;91.20;;;;;;4867084;29;20081;-88
2022/09/17 04:55:22;;;;;;;0.80;0.10;;;9.70;91.20;;;;;;4834076;29;20073;-87
2022/09/17 04:57:51;;;;;;;0.93;0.28;;;9.70;91.20;;;;;;4850141;29;20101;-89
2022/09/17 05:00:20;;;;;;;1.95;0.13;;;9.70;91.20;;;;;;4848685;29;20147;-87
2022/09/17 05:02:52;;;;;;;1.35;0.10;;;9.70;91.20;;;;;;4857681;29;20071;-86
2022/09/17 05:05:19;;;;;;;0.93;0.10;;;9.70;91.20;;;;;;4897837;29;20059;-87
2022/09/17 05:07:50;;;;;;;1.55;0.10;;;9.70;91.20;;;;;;4882705;29;20080;-87
2022/09/17 05:10:18;;;;;;;1.08;0.10;;;9.70;91.20;;;;;;4870432;29;20456;-86
2022/09/17 05:12:53;;;;;;;1.25;0.10;;;9.70;91.20;;;;;;4898690;29;20492;-87
2022/09/17 05:15:21;;;;;;;1.55;0.10;;;9.70;91.10;;;;;;4882198;29;20044;-86
2022/09/17 05:17:49;;;;;;;0.60;0.10;;;9.70;91.10;;;;;;4869208;29;20104;-87
2022/09/17 05:20:16;;;;;;;0.40;0.10;;;9.70;91.10;;;;;;4866625;29;20041;-87
2022/09/17 05:22:48;;;;;;;3.13;0.10;;;9.70;91.10;;;;;;4881581;29;20045;-86
2022/09/17 05:25:19;;;;;;;3.85;0.43;;;9.70;91.10;;;;;;4897414;29;20056;-87
2022/09/17 05:27:46;;;;;;;1.42;0.20;;;9.70;91.10;;;;;;4869577;29;20053;-86
2022/09/17 05:30:15;;;;;;;0.43;0.10;;;9.70;91.10;;;;;;4881984;29;20060;-85
2022/09/17 05:32:44;;;;;;;1.45;0.10;;;9.70;91.10;;;;;;4873793;29;20505;-87
2022/09/17 05:35:10;;;;;;;1.35;0.10;;;9.70;91.10;;;;;;4874743;29;20148;-86
2022/09/17 05:37:38;;;;;;;0.50;0.10;;;9.60;91.10;;;;;;4848069;29;20063;-87
2022/09/17 05:40:07;;;;;;;1.05;0.17;;;9.60;91.00;;;;;;4880024;29;20048;-86
2022/09/17 05:42:34;;;;;;;3.40;0.20;;;9.60;91.10;;;;;;4875728;29;20073;-86
2022/09/17 05:45:02;;;;;;;1.35;0.30;;;9.60;91.10;;;;;;4873441;29;20099;-85
2022/09/17 05:47:29;;;;;;;0.98;0.20;;;9.60;91.10;;;;;;4888996;29;20107;-87
2022/09/17 05:49:57;;;;;;;0.77;0.30;;;9.60;91.10;;;;;;4885711;29;20080;-86
2022/09/17 05:52:27;;;;;;;1.85;0.65;;;9.60;91.10;;;;;;4885625;29;20056;-85
2022/09/17 05:54:55;;;;;;;1.67;0.40;;;9.70;91.10;;;;;;4874254;29;20053;-87
2022/09/17 05:57:23;;;;;;;1.35;0.10;;;9.70;91.10;;;;;;4860410;29;20048;-86
2022/09/17 05:59:50;;;;;;;0.57;0.10;;;9.60;91.30;;;;;;4894279;29;20060;-86
2022/09/17 06:02:17;;;;;;;0.75;0.10;;;9.70;91.00;;;;;;4869672;29;20118;-86
2022/09/17 06:04:45;;;;;;;2.10;0.20;;;9.70;91.00;;;;;;4870213;29;20486;-85
2022/09/17 06:07:12;;;;;;;1.60;0.60;;;9.70;91.00;;;;;;4869988;29;20063;-86
2022/09/17 06:09:39;;;;;;;0.88;0.05;;;9.70;90.90;;;;;;4886904;29;20413;-87
2022/09/17 06:12:07;;;;;;;0.88;0.08;;;9.70;90.90;;;;;;4871761;29;20049;-87
2022/09/17 06:14:34;;;;;;;0.60;0.10;;;9.70;90.90;;;;;;4885539;29;20060;-86
2022/09/17 06:17:04;;;;;;;0.65;0.10;;;9.70;90.90;;;;;;4872111;29;20497;-85
2022/09/17 06:19:31;;;;;;;1.48;0.10;;;9.70;90.90;;;;;;4875554;29;20048;-87
2022/09/17 06:21:58;;;;;;;1.55;0.22;;;9.70;90.90;;;;;;4886495;29;20045;-86
2022/09/17 06:24:26;;;;;;;3.50;0.10;;;9.70;90.90;;;;;;4888178;29;20044;-86
2022/09/17 06:26:53;;;;;;;0.65;0.10;;;9.80;90.90;;;;;;4890369;29;20052;-86
2022/09/17 06:29:20;;;;;;;2.65;0.55;;;9.80;90.70;;;;;;4854351;29;20052;-86
2022/09/17 06:31:49;;;;;;;0.50;0.10;;;9.90;90.70;;;;;;4872738;29;20041;-86
2022/09/17 06:34:16;;;;;;;1.88;0.40;;;10.00;90.60;;;;;;4884517;29;20057;-87
2022/09/17 06:36:44;;;;;;;1.55;0.20;;;10.10;90.60;;;;;;4871488;29;20087;-86
2022/09/17 06:39:12;;;;;;;0.82;0.20;;;10.10;90.50;;;;;;4881590;29;20120;-87
2022/09/17 06:41:42;;;;;;;6.07;0.20;;;10.20;90.40;;;;;;4868973;29;20531;-86
2022/09/17 06:44:09;;;;;;;1.55;0.10;;;10.30;90.40;;;;;;4884730;29;20052;-86
2022/09/17 06:46:36;;;;;;;0.75;0.10;;;10.40;90.30;;;;;;4854077;29;20050;-87
2022/09/17 06:49:03;;;;;;;4.10;0.30;;;10.50;90.20;;;;;;4865625;29;20488;-86
2022/09/17 06:51:31;;;;;;;3.25;0.30;;;10.60;90.20;;;;;;4871020;29;20052;-85
2022/09/17 06:53:58;;;;;;;3.15;0.98;;;10.60;90.10;;;;;;4868519;29;20159;-86
2022/09/17 06:56:25;;;;;;;1.23;0.10;;;10.70;90.10;;;;;;4873918;29;20052;-86
2022/09/17 06:58:53;;;;;;;4.40;0.10;;;10.80;90.00;;;;;;4890997;29;20413;-86
2022/09/17 07:01:22;;;;;;;1.95;0.30;;;10.80;89.90;;;;;;4895185;29;20150;-86
2022/09/17 07:03:49;;;;;;;1.90;0.28;;;10.90;89.80;;;;;;4881110;29;20582;-85
2022/09/17 07:06:16;;;;;;;4.20;0.30;;;11.00;89.70;;;;;;4872074;29;20048;-86
2022/09/17 07:08:45;;;;;;;2.95;0.20;;;11.10;89.60;;;;;;4874581;29;20059;-84
2022/09/17 07:11:14;;;;;;;2.70;0.10;;;11.10;90.00;;;;;;4877795;29;20109;-84
2022/09/17 07:13:42;;;;;;;1.90;0.20;;;11.20;89.30;;;;;;4884351;29;20083;-85
2022/09/17 07:16:09;;;;;;;1.48;0.38;;;11.30;89.30;;;;;;4883282;29;20454;-85
2022/09/17 07:18:36;;;;;;;3.63;0.20;;;11.30;89.20;;;;;;4868217;29;20064;-86
2022/09/17 07:21:05;;;;;;;1.00;0.10;;;11.40;89.00;;;;;;4868641;29;20068;-86
2022/09/17 07:23:34;;;;;;;3.33;0.30;;;11.50;88.90;;;;;;4874289;29;20053;-84
2022/09/17 07:26:05;;;;;;;1.35;0.20;;;11.60;88.80;;;;;;4864740;29;20498;-84
2022/09/17 07:28:32;;;;;;;3.13;0.20;;;11.60;88.60;;;;;;4861544;29;20056;-85
2022/09/17 07:31:04;;;;;;;4.38;0.20;;;11.70;88.50;;;;;;4888117;29;20106;-85
2022/09/17 07:33:35;;;;;;;2.15;0.20;;;11.80;88.40;;;;;;4882241;29;20079;-84
2022/09/17 07:36:05;;;;;;;3.70;0.43;;;11.90;88.20;;;;;;4870444;29;20135;-85
2022/09/17 07:38:33;;;;;;;2.47;0.20;;;11.90;88.00;;;;;;4901014;29;20138;-84
2022/09/17 07:41:06;;;;;;;2.42;0.10;;;12.00;88.00;;;;;;4885988;29;20048;-85
2022/09/17 07:43:34;;;;;;;1.42;0.17;;;12.00;87.70;;;;;;4885800;29;20048;-85
2022/09/17 07:46:04;;;;;;;2.90;0.20;;;12.10;87.60;;;;;;4867598;29;20524;-86
2022/09/17 07:48:32;;;;;;;5.90;0.20;;;12.20;87.60;;;;;;4879393;29;20049;-84
2022/09/17 07:50:59;;;;;;;1.65;0.00;;;12.20;87.60;;;;;;4884392;29;20052;-85
2022/09/17 07:53:26;;;;;;;1.45;0.10;;;12.30;87.50;;;;;;4901031;29;20052;-86
2022/09/17 07:55:58;;;;;;;3.35;0.20;;;12.40;87.30;;;;;;4874052;29;20049;-86
2022/09/17 07:58:32;;;;;;;3.38;0.30;;;12.50;87.10;;;;;;4875276;29;20052;-84
2022/09/17 08:01:07;;;;;;;2.08;0.30;;;12.60;86.70;;;;;;4905228;29;20139;-84
2022/09/17 08:03:38;;;;;;;2.17;0.20;;;12.70;86.30;;;;;;4877079;29;20045;-85
2022/09/17 08:06:07;;;;;;;5.43;0.60;;;12.70;85.90;;;;;;4869803;29;20497;-85
2022/09/17 08:08:35;;;;;;;2.70;0.20;;;12.80;85.30;;;;;;4885642;29;20067;-84
2022/09/17 08:11:05;;;;;;;2.70;0.20;;;12.90;84.80;;;;;;4881225;29;20052;-85
2022/09/17 08:13:33;;;;;;;3.45;0.47;;;12.90;84.80;;;;;;4867722;29;20493;-84
2022/09/17 08:16:02;;;;;;;3.67;0.25;;;13.00;84.60;;;;;;4882524;29;20505;-85
2022/09/17 08:18:30;;;;;;;3.88;0.20;;;13.00;84.70;;;;;;4882563;29;20055;-85
2022/09/17 08:21:00;;;;;;;5.75;0.30;;;13.00;84.80;;;;;;4866833;29;20052;-85
2022/09/17 08:23:28;;;;;;;1.60;0.25;;;13.10;84.60;;;;;;4882907;29;20100;-85
2022/09/17 08:25:58;;;;;;;2.03;0.40;;;13.20;84.20;;;;;;4881843;29;20060;-87
2022/09/17 08:28:27;;;;;;;3.03;0.43;;;13.30;84.10;;;;;;4858887;29;20056;-85
2022/09/17 08:31:00;;;;;;;2.80;0.30;;;13.30;84.30;;;;;;4856981;29;20060;-86
2022/09/17 08:33:31;;;;;;;2.60;0.30;;;13.40;82.60;;;;;;4871205;29;20049;-84
2022/09/17 08:36:03;;;;;;;1.98;0.40;;;13.60;82.80;;;;;;4873547;29;20060;-90
2022/09/17 08:38:36;;;;;;;1.92;0.20;;;13.70;82.30;;;;;;4898799;29;20052;-87
2022/09/17 08:41:14;;;;;;;2.35;0.30;;;13.80;81.90;;;;;;4885768;29;20044;-90
2022/09/17 08:43:54;;;;;;;5.10;0.30;;;13.70;81.40;;;;;;4882554;29;20084;-88
2022/09/17 08:46:27;;;;;;;1.50;0.25;;;13.80;81.50;;;;;;4882811;29;20052;-88
2022/09/17 08:48:57;;;;;;;;;;;13.80;81.40;;;;;;4886272;29;20088;-88
2022/09/17 08:51:36;;;;;;;3.25;0.40;;;13.90;80.40;;;;;;4887565;29;19924;-88
2022/09/17 08:54:14;;;;;;;2.60;0.28;;;14.00;80.60;;;;;;4880588;29;20493;-89
2022/09/17 08:56:44;;;;;;;4.68;0.85;;;14.10;80.60;;;;;;4904166;29;20044;-84
2022/09/17 08:59:41;;;;;;;2.60;0.28;;;14.30;80.20;;;;;;4896348;29;20052;-85
2022/09/17 09:02:43;;;;;;;5.38;0.60;;;14.40;79.50;;;;;;4845912;29;20052;-89
2022/09/17 09:05:21;;;;;;;2.25;0.20;;;14.40;78.80;;;;;;4799400;29;20064;-89
2022/09/17 09:07:55;;;;;;;4.22;0.77;;;14.30;77.50;;;;;;4873204;29;20052;-89
2022/09/17 09:10:26;;;;;;;2.10;0.22;;;14.20;76.10;;;;;;4866065;29;20048;-83
2022/09/17 09:13:03;;;;;;;4.35;0.47;;;14.20;75.50;;;;;;4869212;29;20052;-88
2022/09/17 09:15:42;;;;;;;1.90;0.30;;;14.20;74.80;;;;;;4863032;29;20044;-84
2022/09/17 09:18:19;;;;;;;2.58;0.20;;;14.10;74.30;;;;;;4851079;29;20075;-89
2022/09/17 09:21:08;;;;;;;0.95;0.20;;;14.20;74.50;;;;;;4863391;29;20037;-84
2022/09/17 09:23:57;;;;;;;2.17;0.20;;;14.20;74.40;;;;;;4877381;29;20037;-84
2022/09/17 09:26:46;;;;;;;1.48;0.20;;;14.20;74.00;;;;;;4879584;29;20417;-84
2022/09/17 09:29:37;;;;;;;2.25;0.30;;;14.40;74.90;;;;;;4898304;29;20413;-85
2022/09/17 09:32:10;;;;;;;2.67;0.30;;;14.40;74.00;;;;;;4896851;29;20147;-86
2022/09/17 09:34:44;;;;;;;2.85;0.30;;;14.40;73.10;;;;;;4885510;29;20044;-85
2022/09/17 09:37:22;;;;;;;1.48;0.40;;;14.40;72.50;;;;;;4881283;29;20064;-84
2022/09/17 09:39:52;;;;;;;1.83;0.25;;;14.50;72.50;;;;;;4868483;29;20044;-85
2022/09/17 09:42:30;;;;;;;4.68;0.47;;;14.50;72.80;;;;;;4874778;29;20067;-86
2022/09/17 09:45:00;;;;;;;2.13;0.30;;;14.50;72.60;;;;;;4879370;29;20059;-90
2022/09/17 09:47:46;;;;;;;3.03;0.20;;;14.70;72.70;;;;;;4879040;29;20059;-89
2022/09/17 09:50:39;;;;;;;3.80;0.22;;;14.80;72.90;;;;;;4899397;29;20087;-89
2022/09/17 09:53:48;;;;;;;3.63;0.30;;;15.00;72.60;;;;;;4885809;29;20127;-89
2022/09/17 09:56:37;;;;;;;1.60;0.13;;;15.30;71.60;;;;;;4890666;29;20440;-83
2022/09/17 09:59:11;;;;;;;1.27;0.10;;;15.20;71.50;;;;;;4883128;29;20060;-83
2022/09/17 10:01:41;;;;;;;1.98;0.10;;;14.90;72.30;;;;;;4874426;29;20053;-83
2022/09/17 10:04:27;;;;;;;0.52;0.20;;;14.70;73.30;;;;;;4872938;29;20378;-83
2022/09/17 10:07:08;;;;;;;1.20;0.10;;;14.50;74.20;;;;;;4867145;29;20143;-82
2022/09/17 10:09:37;;;;;;;2.23;0.10;;;14.20;75.00;;;;;;4887493;29;20055;-83
2022/09/17 10:12:07;;;;;;;1.25;0.10;;;14.00;75.70;;;;;;4875090;29;20056;-82
2022/09/17 10:14:37;;;;;;;2.03;0.30;;;13.90;76.40;;;;;;4882598;29;20069;-84
2022/09/17 10:17:21;;;;;;;1.63;0.10;;;13.70;76.80;;;;;;4896532;29;20076;-84
2022/09/17 10:20:26;;;;;;;0.65;0.20;;;13.70;77.10;;;;;;4856017;29;20052;-83
2022/09/17 10:22:53;;;;;;;3.28;0.17;;;13.70;77.50;;;;;;4790533;29;20100;-87
2022/09/17 10:25:33;;;;;;;1.45;0.00;;;13.70;77.70;;;;;;4786193;29;20163;-87
2022/09/17 10:28:05;;;;;;;1.98;0.10;;;13.70;78.00;;;;;;4846313;29;20478;-86
2022/09/17 10:30:33;;;;;;;1.27;0.13;;;13.50;78.90;;;;;;4865862;29;20116;-85
2022/09/17 10:33:13;;;;;;;1.67;0.10;;;13.40;79.40;;;;;;4883654;29;20105;-83
2022/09/17 10:35:40;;;;;;;0.85;0.00;;;13.40;80.10;;;;;;4867944;29;20056;-83
2022/09/17 10:38:39;;;;;;;0.30;0.00;;;13.50;80.00;;;;;;4885816;29;20119;-82
2022/09/17 10:41:24;;;;;;;2.10;0.20;;;13.50;80.20;;;;;;4901695;29;20548;-83
2022/09/17 10:43:51;;;;;;;1.33;0.13;;;13.30;80.70;;;;;;4878314;29;20180;-83
2022/09/17 10:46:32;;;;;;;1.73;0.10;;;13.00;81.70;;;;;;4858844;29;20509;-84
2022/09/17 10:49:28;;;;;;;2.70;0.17;;;12.50;82.90;;;;;;4873678;29;20053;-83
2022/09/17 10:52:07;;;;;;;0.68;0.10;;;12.00;83.90;;;;;;4870848;29;20045;-83
2022/09/17 10:55:12;;;;;;;0.68;0.00;;;11.80;84.70;;;;;;4879926;29;20425;-82
2022/09/17 10:58:02;;;;;;;1.73;0.10;;;11.50;85.20;;;;;;4849768;29;20060;-85
2022/09/17 11:00:42;;;;;;;1.17;0.10;;;11.50;85.60;;;;;;4865494;29;20059;-83
2022/09/17 11:03:36;;;;;;;0.93;0.08;;;11.50;85.60;;;;;;4849944;29;20494;-83
2022/09/17 11:06:09;;;;;;;1.20;0.05;;;11.60;85.60;;;;;;4864774;29;20056;-83
2022/09/17 11:08:40;;;;;;;2.25;0.20;;;11.70;85.50;;;;;;4865844;29;20057;-85
2022/09/17 11:11:11;;;;;;;0.30;0.10;;;11.80;86.00;;;;;;4869628;29;20108;-84
2022/09/17 11:13:57;;;;;;;0.38;0.10;;;12.00;85.90;;;;;;4883597;29;20549;-85
2022/09/17 11:16:38;;;;;;;1.02;0.00;;;12.30;85.30;;;;;;4864570;29;20108;-85
2022/09/17 11:19:23;;;;;;;4.43;0.55;;;12.50;85.60;;;;;;4888954;29;20040;-84
2022/09/17 11:22:20;;;;;;;2.33;0.13;;;12.50;85.80;;;;;;4886636;29;20072;-85
2022/09/17 11:25:02;;;;;;;1.30;0.20;;;12.60;85.90;;;;;;4884989;29;20052;-84
2022/09/17 11:27:38;;;;;;;0.40;0.10;;;12.70;85.90;;;;;;4889121;29;20504;-86
2022/09/17 11:30:22;;;;;;;3.47;0.17;;;12.90;85.90;;;;;;4864726;29;20109;-85
2022/09/17 11:33:02;;;;;;;1.35;0.17;;;13.00;85.50;;;;;;4834411;29;20083;-86
2022/09/17 11:35:39;;;;;;;3.58;0.20;;;13.10;85.50;;;;;;4864693;29;20051;-86
2022/09/17 11:38:20;;;;;;;3.28;0.40;;;13.20;85.30;;;;;;4864941;29;20116;-86
2022/09/17 11:40:57;;;;;;;2.30;0.30;;;13.30;85.20;;;;;;4881347;29;20116;-85
2022/09/17 11:43:29;;;;;;;3.10;0.30;;;13.30;85.00;;;;;;4888110;29;20041;-84
2022/09/17 11:46:21;;;;;;;2.97;0.30;;;13.40;84.80;;;;;;4886404;29;20050;-86
2022/09/17 11:49:15;;;;;;;5.18;0.40;;;13.50;84.30;;;;;;4868312;29;20331;-86
2022/09/17 11:52:07;;;;;;;3.17;0.35;;;13.60;82.40;;;;;;4867755;29;20139;-87
2022/09/17 11:54:47;;;;;;;4.72;0.77;;;13.80;82.00;;;;;;4869914;29;20052;-81
2022/09/17 11:57:24;;;;;;;2.58;0.50;;;14.10;80.40;;;;;;4894698;29;20178;-84
2022/09/17 12:00:00;;;;;;;3.65;0.45;;;14.30;80.10;;;;;;4879629;29;20462;-84
2022/09/17 12:02:40;;;;;;;6.22;0.73;;;14.50;79.20;;;;;;4883753;29;20045;-84
2022/09/17 12:05:17;;;;;;;3.58;0.43;;;14.70;77.30;;;;;;4874253;29;20415;-82
2022/09/17 12:07:49;;;;;;;5.13;0.70;;;14.90;77.20;;;;;;4882104;29;20052;-82
2022/09/17 12:10:31;;;;;;;5.32;0.95;;;14.90;75.80;;;;;;4900347;29;20107;-81
2022/09/17 12:13:20;;;;;;;5.97;0.85;;;15.10;75.40;;;;;;4874943;29;20100;-83
2022/09/17 12:15:59;;;;;;;2.25;0.30;;;15.30;75.50;;;;;;4899207;29;20056;-81
2022/09/17 12:18:48;;;;;;;3.03;0.47;;;15.10;75.80;;;;;;4876321;29;20052;-84
2022/09/17 12:21:21;;;;;;;2.35;0.20;;;14.80;76.70;;;;;;4895539;29;20049;-83
2022/09/17 12:23:56;;;;;;;2.88;0.55;;;14.30;78.10;;;;;;4879719;29;20059;-82
2022/09/17 12:26:47;;;;;;;4.43;0.40;;;14.00;79.20;;;;;;4894057;29;20557;-82
2022/09/17 12:29:33;;;;;;;2.97;0.30;;;13.90;79.90;;;;;;4881661;29;20083;-81
2022/09/17 12:32:45;;;;;;;2.50;0.35;;;13.90;79.90;;;;;;4886706;29;20383;-80
2022/09/17 12:35:40;;;;;;;2.88;0.20;;;13.80;80.20;;;;;;4869306;29;20103;-80
2022/09/17 12:38:36;;;;;;;3.67;0.20;;;13.70;80.30;;;;;;4850177;29;20128;-81
2022/09/17 12:41:48;;;;;;;1.20;0.30;;;13.70;80.10;;;;;;4869179;29;20044;-81
2022/09/17 12:44:45;;;;;;;1.70;0.10;;;13.80;79.50;;;;;;4799619;29;20066;-81
2022/09/17 12:47:48;;;;;;;1.45;0.68;;;14.10;78.70;;;;;;4817981;29;20425;-82
2022/09/17 12:50:39;;;;;;;1.63;0.10;;;14.30;76.70;;;;;;4846839;29;20048;-81
2022/09/17 12:53:22;;;;;;;2.35;0.68;;;14.40;76.20;;;;;;4892781;29;20135;-83
2022/09/17 12:56:04;;;;;;;;;;;14.50;75.60;;;;;;4894369;29;20062;-83
2022/09/17 12:58:52;;;;;;;2.75;0.20;;;14.60;74.70;;;;;;4890615;29;19974;-80
2022/09/17 13:01:39;;;;;;;2.45;0.47;;;14.70;74.50;;;;;;4897927;29;20500;-85
2022/09/17 13:04:25;;;;;;;3.15;0.35;;;14.60;74.80;;;;;;4893605;29;20063;-83
2022/09/17 13:07:32;;;;;;;1.42;0.20;;;14.50;74.90;;;;;;4891324;29;20137;-83
2022/09/17 13:10:37;;;;;;;4.30;0.47;;;14.30;74.80;;;;;;4891936;29;20061;-83
2022/09/17 13:13:12;;;;;;;2.97;0.30;;;14.30;75.10;;;;;;4877683;29;20068;-83
2022/09/17 13:16:04;;;;;;;4.60;0.20;;;14.30;75.20;;;;;;4883522;29;20087;-83
2022/09/17 13:19:02;;;;;;;1.65;0.50;;;14.40;75.10;;;;;;4861295;29;20048;-84
2022/09/17 13:21:59;;;;;;;3.20;0.45;;;14.50;75.10;;;;;;4866953;29;20044;-81
2022/09/17 13:24:29;;;;;;;2.45;0.20;;;14.50;74.50;;;;;;4889273;29;20048;-83
2022/09/17 13:27:00;;;;;;;2.65;0.30;;;14.40;74.60;;;;;;4874886;29;20067;-83
2022/09/17 13:29:45;;;;;;;3.35;0.52;;;14.40;73.90;;;;;;4878026;29;20096;-84
2022/09/17 13:32:31;;;;;;;4.05;0.22;;;14.40;74.10;;;;;;4896002;29;20045;-83